Time;durP1;ratioP1;P1;durP2;ratioP2;P2;SDS_P1;SDS_P2;PMS_P1;PMS_P2;Temp;Humidity;BMP_temperature;BMP_pressure;BME280_temperature;BME280_humidity;BME280_pressure;Samples;Min_cycle;Max_cycle;Signal;HPM_P1;HPM_P2
2023/12/14 00:02:12;;;;;;;6.83;3.80;;;6.50;99.90;6.40;99339.00;;;;4951571;28;107170;-76
2023/12/14 00:04:37;;;;;;;6.77;4.20;;;6.50;99.90;6.40;99352.00;;;;4936991;28;106852;-77
2023/12/14 00:07:03;;;;;;;4.93;4.27;;;6.50;99.90;6.40;99342.00;;;;4951742;28;123418;-76
2023/12/14 00:09:29;;;;;;;4.73;3.97;;;6.60;99.90;6.40;99346.00;;;;4950666;28;121958;-77
2023/12/14 00:11:54;;;;;;;4.90;3.30;;;6.50;99.90;6.30;99345.00;;;;4945253;28;109721;-77
2023/12/14 00:14:20;;;;;;;7.17;3.77;;;6.50;99.90;6.30;99348.00;;;;4953380;28;94103;-77
2023/12/14 00:16:46;;;;;;;5.77;3.63;;;6.50;99.90;6.30;99359.00;;;;4951857;28;122751;-79
2023/12/14 00:19:11;;;;;;;5.20;3.30;;;6.50;99.90;6.30;99357.00;;;;4951344;28;97421;-78
2023/12/14 00:21:37;;;;;;;5.03;3.13;;;6.90;99.90;6.40;99357.00;;;;4952180;28;97667;-77
2023/12/14 00:24:03;;;;;;;6.10;4.13;;;6.50;99.90;6.40;99357.00;;;;4945481;28;93965;-78
2023/12/14 00:26:28;;;;;;;5.90;4.07;;;6.50;99.90;6.40;99355.00;;;;4925701;28;121785;-77
2023/12/14 00:28:54;;;;;;;4.47;3.13;;;7.10;99.90;6.40;99360.00;;;;4949852;28;120779;-76
2023/12/14 00:31:20;;;;;;;7.90;3.57;;;6.60;99.90;6.30;99359.00;;;;4947562;28;107780;-76
2023/12/14 00:33:45;;;;;;;4.33;2.87;;;6.50;99.90;6.30;99363.00;;;;4948422;28;108872;-77
2023/12/14 00:36:18;;;;;;;7.37;3.50;;;6.50;99.90;6.30;99360.00;;;;4951826;28;95189;-76
2023/12/14 00:38:44;;;;;;;6.53;4.00;;;6.60;99.90;6.30;99379.00;;;;4949724;28;93112;-76
2023/12/14 00:41:09;;;;;;;7.03;4.13;;;6.50;99.90;6.40;99374.00;;;;4928980;28;111064;-76
2023/12/14 00:43:36;;;;;;;9.00;4.93;;;6.50;99.90;6.40;99383.00;;;;4944789;28;108434;-76
2023/12/14 00:46:02;;;;;;;6.83;4.73;;;6.50;99.90;6.40;99371.00;;;;4948024;28;93219;-76
2023/12/14 00:48:28;;;;;;;4.40;3.33;;;6.50;99.90;6.40;99379.00;;;;4947942;28;114322;-76
2023/12/14 00:50:54;;;;;;;8.57;5.27;;;6.90;99.90;6.40;99391.00;;;;4945160;28;110401;-76
2023/12/14 00:53:19;;;;;;;13.23;5.10;;;6.70;99.90;6.40;99402.00;;;;4952261;28;108971;-77
2023/12/14 00:55:45;;;;;;;9.93;5.17;;;6.60;99.90;6.50;99401.00;;;;4945352;28;123506;-77
2023/12/14 00:58:14;;;;;;;8.93;4.73;;;6.70;99.90;6.50;99405.00;;;;4946244;28;92810;-76
2023/12/14 01:00:41;;;;;;;9.77;4.33;;;6.60;99.90;6.50;99412.00;;;;4945269;28;93174;-76
2023/12/14 01:03:06;;;;;;;11.93;6.13;;;6.80;99.90;6.50;99421.00;;;;4950005;28;93163;-76
2023/12/14 01:05:32;;;;;;;9.27;5.17;;;6.80;99.90;6.60;99419.00;;;;4948199;28;123068;-76
2023/12/14 01:07:58;;;;;;;4.83;4.37;;;6.60;99.90;6.60;99416.00;;;;4950049;28;120978;-75
2023/12/14 01:10:23;;;;;;;9.13;5.57;;;6.70;99.90;6.60;99416.00;;;;4949670;28;93021;-76
2023/12/14 01:12:49;;;;;;;8.63;5.53;;;6.80;99.90;6.70;99426.00;;;;4966500;28;107075;-77
2023/12/14 01:15:15;;;;;;;6.57;4.27;;;7.10;99.90;6.70;99424.00;;;;4931722;28;95538;-77
2023/12/14 01:17:41;;;;;;;6.93;5.07;;;6.80;99.90;6.70;99428.00;;;;4953321;28;112721;-77
2023/12/14 01:20:07;;;;;;;13.10;6.23;;;6.90;99.90;6.80;99426.00;;;;4946102;28;110109;-77
2023/12/14 01:22:33;;;;;;;11.73;6.30;;;6.90;99.90;6.80;99432.00;;;;4946507;28;92987;-77
2023/12/14 01:24:59;;;;;;;11.60;6.23;;;7.00;99.90;6.80;99436.00;;;;4944067;28;103187;-77
2023/12/14 01:27:25;;;;;;;8.17;5.77;;;7.00;99.90;6.80;99429.00;;;;4945904;28;110852;-77
2023/12/14 01:29:51;;;;;;;7.43;4.90;;;6.90;99.90;6.80;99440.00;;;;4931863;28;110008;-77
2023/12/14 01:32:16;;;;;;;9.13;4.73;;;7.00;99.90;6.80;99450.00;;;;4951451;28;107225;-77
2023/12/14 01:34:42;;;;;;;7.50;5.30;;;7.00;99.90;6.90;99453.00;;;;4951817;28;104556;-77
2023/12/14 01:37:08;;;;;;;8.43;5.00;;;7.00;99.90;6.90;99455.00;;;;4942512;28;123045;-77
2023/12/14 01:39:33;;;;;;;9.77;5.07;;;7.00;99.90;6.90;99463.00;;;;4951468;28;94056;-77
2023/12/14 01:41:59;;;;;;;10.07;5.37;;;7.10;99.90;7.00;99459.00;;;;4951397;28;95610;-77
2023/12/14 01:44:24;;;;;;;14.53;7.40;;;7.20;99.90;7.00;99466.00;;;;4951325;28;121959;-78
2023/12/14 01:46:50;;;;;;;9.17;6.23;;;7.10;99.90;7.00;99472.00;;;;4946684;28;122321;-77
2023/12/14 01:49:16;;;;;;;7.07;5.50;;;7.10;99.90;7.00;99469.00;;;;4933771;28;109770;-77
2023/12/14 01:51:41;;;;;;;11.80;7.40;;;7.20;99.90;7.00;99473.00;;;;4950803;28;107797;-77
2023/12/14 01:54:07;;;;;;;9.70;5.20;;;7.50;99.90;7.10;99472.00;;;;4948442;28;122322;-77
2023/12/14 01:56:33;;;;;;;7.53;5.53;;;7.20;99.90;7.10;99476.00;;;;4949147;28;110624;-77
2023/12/14 01:58:58;;;;;;;11.87;7.20;;;7.80;99.90;7.10;99477.00;;;;4949763;28;110266;-77
2023/12/14 02:01:42;;;;;;;13.80;7.43;;;7.20;99.90;7.10;99479.00;;;;4947571;28;109393;-77
2023/12/14 02:04:09;;;;;;;14.50;6.87;;;7.20;99.90;7.10;99483.00;;;;4951004;28;93389;-77
2023/12/14 02:06:35;;;;;;;15.97;7.47;;;7.20;99.90;7.10;99475.00;;;;4946655;28;93885;-77
2023/12/14 02:09:01;;;;;;;10.67;6.23;;;7.30;99.90;7.10;99484.00;;;;4943863;28;93113;-79
2023/12/14 02:11:27;;;;;;;12.47;7.40;;;7.20;99.90;7.10;99476.00;;;;4952025;28;93024;-78
2023/12/14 02:13:52;;;;;;;9.47;6.53;;;7.20;99.90;7.10;99479.00;;;;4948382;28;122528;-80
2023/12/14 02:16:18;;;;;;;15.53;7.43;;;7.20;99.90;7.10;99487.00;;;;4947970;28;112894;-80
2023/12/14 02:18:45;;;;;;;11.70;6.20;;;7.20;99.90;7.10;99485.00;;;;4945073;28;92755;-78
2023/12/14 02:21:11;;;;;;;12.17;6.70;;;7.20;99.90;7.10;99495.00;;;;4933563;28;93668;-78
2023/12/14 02:23:45;;;;;;;8.43;5.80;;;7.20;99.90;7.00;99495.00;;;;4927544;28;114342;-78
2023/12/14 02:26:12;;;;;;;12.13;6.77;;;7.20;99.90;7.00;99493.00;;;;4943758;28;122904;-78
2023/12/14 02:28:38;;;;;;;9.77;5.47;;;7.20;99.90;7.00;99508.00;;;;4952657;28;93424;-78
2023/12/14 02:31:04;;;;;;;11.53;6.83;;;7.10;99.90;7.00;99509.00;;;;4937162;28;92920;-78
2023/12/14 02:33:29;;;;;;;14.63;6.23;;;8.80;99.90;7.00;99500.00;;;;4940229;28;95230;-77
2023/12/14 02:35:55;;;;;;;13.40;5.73;;;7.20;99.90;7.00;99508.00;;;;4954820;28;122248;-78
2023/12/14 02:38:21;;;;;;;7.40;5.53;;;7.20;99.90;7.00;99509.00;;;;4950712;28;109791;-79
2023/12/14 02:40:46;;;;;;;16.67;6.47;;;7.20;99.90;7.00;99509.00;;;;4950856;28;93076;-79
2023/12/14 02:43:13;;;;;;;6.77;5.40;;;7.30;99.90;7.00;99508.00;;;;4934747;28;115156;-78
2023/12/14 02:45:38;;;;;;;11.23;6.23;;;7.20;99.90;7.00;99513.00;;;;4952060;28;97302;-78
2023/12/14 02:48:04;;;;;;;9.10;4.33;;;7.20;99.90;7.00;99508.00;;;;4946086;28;108985;-79
2023/12/14 02:50:30;;;;;;;12.03;6.07;;;7.20;99.90;7.00;99512.00;;;;4944394;28;108952;-79
2023/12/14 02:52:56;;;;;;;9.27;5.10;;;7.10;99.90;7.00;99501.00;;;;4933814;28;123559;-78
2023/12/14 02:55:22;;;;;;;10.90;5.77;;;7.20;99.90;7.00;99513.00;;;;4953104;28;121404;-79
2023/12/14 02:57:47;;;;;;;11.50;6.60;;;7.20;99.90;7.00;99519.00;;;;4934339;28;109604;-79
2023/12/14 03:00:13;;;;;;;9.93;5.83;;;7.20;99.90;7.00;99530.00;;;;4935088;28;110090;-80
2023/12/14 03:02:39;;;;;;;16.93;7.23;;;7.10;99.90;7.00;99519.00;;;;4925731;28;113740;-80
2023/12/14 03:05:05;;;;;;;11.43;5.07;;;7.10;99.90;7.00;99522.00;;;;4947045;28;121555;-78
2023/12/14 03:07:31;;;;;;;12.53;6.33;;;7.10;99.90;6.90;99523.00;;;;4944910;28;92543;-78
2023/12/14 03:09:56;;;;;;;11.80;5.60;;;7.10;99.90;6.90;99525.00;;;;4944514;28;109261;-77
2023/12/14 03:12:22;;;;;;;12.53;6.37;;;7.10;99.90;6.90;99528.00;;;;4947092;28;122096;-77
2023/12/14 03:14:48;;;;;;;9.37;5.87;;;7.10;99.90;6.90;99533.00;;;;4946934;28;122919;-77
2023/12/14 03:17:13;;;;;;;8.27;3.87;;;7.30;99.90;6.90;99531.00;;;;4945475;28;110116;-79
2023/12/14 03:19:40;;;;;;;11.73;4.50;;;7.10;99.90;6.90;99539.00;;;;4947969;28;93284;-77
2023/12/14 03:22:07;;;;;;;10.50;4.93;;;7.10;99.90;6.90;99539.00;;;;4937019;28;95684;-77
2023/12/14 03:24:32;;;;;;;10.97;5.47;;;7.10;99.90;6.90;99548.00;;;;4961730;28;95323;-79
2023/12/14 03:26:58;;;;;;;9.00;5.43;;;7.10;99.90;6.90;99543.00;;;;4950976;28;100687;-78
2023/12/14 03:29:23;;;;;;;11.57;6.83;;;7.10;99.90;6.90;99547.00;;;;4950097;28;108371;-78
2023/12/14 03:31:49;;;;;;;10.77;6.17;;;7.50;99.90;6.90;99551.00;;;;4945504;28;122973;-79
2023/12/14 03:34:15;;;;;;;14.77;6.77;;;7.10;99.90;6.90;99545.00;;;;4950601;28;113272;-79
2023/12/14 03:36:40;;;;;;;10.97;5.83;;;7.10;99.90;6.90;99557.00;;;;4956303;28;110169;-78
2023/12/14 03:39:06;;;;;;;11.43;6.37;;;7.00;99.90;6.90;99564.00;;;;4949807;28;108516;-80
2023/12/14 03:41:32;;;;;;;14.97;7.43;;;7.00;99.90;6.90;99571.00;;;;4947007;28;123863;-79
2023/12/14 03:43:58;;;;;;;13.17;7.93;;;7.10;99.90;6.90;99569.00;;;;4941425;28;95037;-78
2023/12/14 03:46:23;;;;;;;14.17;8.03;;;7.00;99.90;6.90;99573.00;;;;4947695;28;107720;-78
2023/12/14 03:48:49;;;;;;;10.57;6.73;;;7.30;99.90;6.80;99574.00;;;;4947228;28;106694;-78
2023/12/14 03:51:19;;;;;;;7.73;6.10;;;7.00;99.90;6.80;99584.00;;;;4948186;28;122529;-77
2023/12/14 03:53:45;;;;;;;11.30;7.33;;;7.00;99.90;6.80;99592.00;;;;4951891;28;111544;-77
2023/12/14 03:56:11;;;;;;;10.57;6.10;;;7.00;99.90;6.80;99585.00;;;;4946267;28;109956;-77
2023/12/14 03:58:36;;;;;;;13.33;7.10;;;6.90;99.90;6.80;99593.00;;;;4940616;28;109097;-77
2023/12/14 04:01:02;;;;;;;7.63;6.50;;;7.00;99.90;6.80;99603.00;;;;4938275;28;121766;-77
2023/12/14 04:03:28;;;;;;;13.57;7.67;;;7.00;99.90;6.80;99601.00;;;;4948467;28;94207;-78
2023/12/14 04:05:53;;;;;;;15.37;6.80;;;6.90;99.90;6.80;99612.00;;;;4945304;28;110620;-78
2023/12/14 04:08:19;;;;;;;15.57;6.00;;;7.00;99.90;6.70;99609.00;;;;4927310;28;109795;-77
2023/12/14 04:10:45;;;;;;;15.20;6.30;;;6.90;99.90;6.70;99615.00;;;;4953563;28;95596;-79
2023/12/14 04:13:10;;;;;;;8.40;5.53;;;7.00;99.90;6.70;99616.00;;;;4951762;28;104653;-76
2023/12/14 04:15:36;;;;;;;9.83;5.73;;;6.90;99.90;6.70;99625.00;;;;4951879;28;111340;-78
2023/12/14 04:18:02;;;;;;;7.77;6.27;;;6.90;99.90;6.70;99622.00;;;;4964617;28;107362;-77
2023/12/14 04:20:27;;;;;;;10.83;6.10;;;6.90;99.90;6.70;99630.00;;;;4949719;28;118179;-79
2023/12/14 04:22:53;;;;;;;11.37;6.37;;;6.90;99.90;6.70;99627.00;;;;4946275;28;121994;-80
2023/12/14 04:25:19;;;;;;;12.97;5.77;;;7.00;99.90;6.70;99630.00;;;;4943492;28;108462;-78
2023/12/14 04:27:44;;;;;;;9.30;5.77;;;6.80;99.90;6.70;99631.00;;;;4947813;28;109401;-78
2023/12/14 04:30:11;;;;;;;9.00;6.30;;;7.30;99.90;6.70;99639.00;;;;4953500;28;123626;-79
2023/12/14 04:32:38;;;;;;;11.87;5.63;;;6.90;99.90;6.70;99651.00;;;;4948866;28;92986;-78
2023/12/14 04:35:05;;;;;;;13.10;5.60;;;6.90;99.90;6.70;99642.00;;;;4951326;28;93057;-76
2023/12/14 04:37:31;;;;;;;8.87;5.90;;;7.30;99.90;6.70;99644.00;;;;4953735;28;93905;-77
2023/12/14 04:39:57;;;;;;;8.83;5.63;;;7.20;99.90;6.70;99641.00;;;;4949408;28;93876;-78
2023/12/14 04:42:23;;;;;;;8.10;5.73;;;6.90;99.90;6.70;99643.00;;;;4951184;28;121775;-78
2023/12/14 04:44:48;;;;;;;14.20;7.70;;;6.90;99.90;6.70;99648.00;;;;4951958;28;109563;-78
2023/12/14 04:47:14;;;;;;;9.33;6.07;;;6.90;99.90;6.70;99653.00;;;;4950292;28;109637;-77
2023/12/14 04:49:40;;;;;;;15.60;7.10;;;6.90;99.90;6.70;99665.00;;;;4946496;28;123400;-79
2023/12/14 04:52:15;;;;;;;9.50;5.77;;;6.90;99.90;6.70;99662.00;;;;4952292;28;94500;-77
2023/12/14 04:54:42;;;;;;;7.23;4.70;;;6.90;99.90;6.70;99666.00;;;;4965072;28;110198;-78
2023/12/14 04:57:07;;;;;;;9.30;4.87;;;6.90;99.90;6.70;99672.00;;;;4946446;28;93155;-77
2023/12/14 04:59:33;;;;;;;7.60;5.50;;;6.90;99.90;6.70;99675.00;;;;4946833;28;121086;-78
2023/12/14 05:01:59;;;;;;;9.47;5.40;;;6.90;99.90;6.70;99681.00;;;;4946640;28;123142;-77
2023/12/14 05:04:24;;;;;;;9.07;4.73;;;6.90;99.90;6.70;99687.00;;;;4947458;28;112013;-77
2023/12/14 05:06:50;;;;;;;6.80;4.17;;;6.90;99.90;6.70;99691.00;;;;4948904;28;92780;-78
2023/12/14 05:09:16;;;;;;;7.17;5.80;;;6.90;99.90;6.70;99688.00;;;;4944067;28;122517;-78
2023/12/14 05:11:42;;;;;;;10.43;6.37;;;6.90;99.90;6.70;99697.00;;;;4945689;28;121442;-78
2023/12/14 05:14:07;;;;;;;9.97;6.33;;;6.80;99.90;6.70;99694.00;;;;4949253;28;92861;-78
2023/12/14 05:16:34;;;;;;;8.80;5.33;;;6.90;99.90;6.70;99702.00;;;;4948152;28;103484;-78
2023/12/14 05:18:59;;;;;;;10.30;4.97;;;6.90;99.90;6.70;99717.00;;;;4949496;28;93868;-78
2023/12/14 05:21:25;;;;;;;7.60;5.33;;;6.80;99.90;6.60;99718.00;;;;4932847;28;122982;-79
2023/12/14 05:23:51;;;;;;;8.87;5.60;;;6.80;99.90;6.60;99717.00;;;;4948451;28;109494;-78
2023/12/14 05:26:16;;;;;;;11.90;6.50;;;6.90;99.90;6.60;99712.00;;;;4950103;28;107216;-80
2023/12/14 05:28:42;;;;;;;10.83;6.10;;;6.90;99.90;6.60;99722.00;;;;4951259;28;122535;-81
2023/12/14 05:31:08;;;;;;;12.57;6.20;;;6.80;99.90;6.60;99731.00;;;;4944439;28;122363;-78
2023/12/14 05:33:38;;;;;;;9.93;6.47;;;6.90;99.90;6.60;99741.00;;;;4945992;28;110749;-77
2023/12/14 05:36:08;;;;;;;10.10;6.33;;;6.80;99.90;6.60;99748.00;;;;4949462;28;93251;-77
2023/12/14 05:38:34;;;;;;;11.53;6.10;;;6.70;99.90;6.50;99748.00;;;;4945388;28;93097;-77
2023/12/14 05:41:00;;;;;;;7.43;6.63;;;6.70;99.90;6.50;99742.00;;;;4941728;28;113494;-77
2023/12/14 05:43:25;;;;;;;10.10;6.93;;;6.80;99.90;6.50;99752.00;;;;4942288;28;110433;-77
2023/12/14 05:45:51;;;;;;;11.73;6.10;;;7.00;99.90;6.50;99747.00;;;;4939860;28;109923;-78
2023/12/14 05:48:17;;;;;;;13.93;7.10;;;6.70;99.90;6.50;99753.00;;;;4943973;28;121739;-77
2023/12/14 05:50:42;;;;;;;13.20;7.20;;;6.70;99.90;6.50;99760.00;;;;4943608;28;122243;-77
2023/12/14 05:53:08;;;;;;;10.67;6.90;;;6.70;99.90;6.50;99772.00;;;;4947433;28;110637;-79
2023/12/14 05:55:34;;;;;;;12.93;7.80;;;6.70;99.90;6.50;99767.00;;;;4950804;28;92918;-80
2023/12/14 05:57:59;;;;;;;11.93;7.17;;;6.30;99.90;6.50;99770.00;;;;4949806;28;114762;-78
2023/12/14 06:00:25;;;;;;;10.40;6.87;;;6.70;99.90;6.50;99788.00;;;;4946321;28;119405;-78
2023/12/14 06:02:51;;;;;;;7.80;5.73;;;6.70;99.90;6.50;99791.00;;;;4946755;28;109713;-77
2023/12/14 06:05:17;;;;;;;10.30;6.10;;;6.70;99.90;6.50;99782.00;;;;4932850;28;94257;-78
2023/12/14 06:07:42;;;;;;;7.20;5.90;;;6.70;99.90;6.50;99796.00;;;;4952448;28;92953;-77
2023/12/14 06:10:09;;;;;;;9.97;6.27;;;6.70;99.90;6.50;99794.00;;;;4938903;28;122979;-77
2023/12/14 06:12:35;;;;;;;8.83;6.13;;;6.60;99.90;6.50;99797.00;;;;4957786;28;93238;-76
2023/12/14 06:15:01;;;;;;;11.27;5.33;;;6.60;99.90;6.50;99817.00;;;;4943372;28;106663;-77
2023/12/14 06:17:27;;;;;;;8.07;5.23;;;6.60;99.90;6.50;99809.00;;;;4951019;28;93251;-77
2023/12/14 06:19:53;;;;;;;9.37;5.60;;;6.70;99.90;6.50;99820.00;;;;4927403;28;115212;-77
2023/12/14 06:22:18;;;;;;;9.00;4.73;;;6.70;99.90;6.50;99817.00;;;;4945828;28;109210;-77
2023/12/14 06:24:44;;;;;;;9.60;5.10;;;7.20;99.90;6.50;99820.00;;;;4942630;28;108358;-77
2023/12/14 06:27:10;;;;;;;10.53;5.30;;;6.60;99.90;6.40;99818.00;;;;4949168;28;93386;-77
2023/12/14 06:29:36;;;;;;;7.17;4.53;;;6.60;99.90;6.40;99826.00;;;;4948267;28;95021;-77
2023/12/14 06:32:01;;;;;;;6.17;4.10;;;6.60;99.90;6.40;99826.00;;;;4944884;28;108372;-77
2023/12/14 06:34:27;;;;;;;7.30;4.20;;;6.60;99.90;6.40;99844.00;;;;4949380;28;92985;-77
2023/12/14 06:36:53;;;;;;;5.57;4.40;;;6.60;99.90;6.40;99838.00;;;;4951157;28;123640;-77
2023/12/14 06:39:18;;;;;;;7.07;5.00;;;6.60;99.90;6.40;99837.00;;;;4949337;28;92847;-77
2023/12/14 06:41:44;;;;;;;6.27;3.90;;;6.60;99.90;6.40;99843.00;;;;4949694;28;94291;-77
2023/12/14 06:44:10;;;;;;;7.43;6.03;;;6.50;99.90;6.30;99859.00;;;;4944737;28;108479;-76
2023/12/14 06:46:36;;;;;;;6.63;4.17;;;6.80;99.90;6.30;99864.00;;;;4953755;28;92683;-76
2023/12/14 06:49:02;;;;;;;6.43;4.80;;;6.50;99.90;6.40;99862.00;;;;4936065;28;93148;-75
2023/12/14 06:51:27;;;;;;;7.27;3.87;;;6.50;99.90;6.30;99879.00;;;;4947653;28;110126;-75
2023/12/14 06:53:53;;;;;;;5.83;3.97;;;6.70;99.90;6.30;99877.00;;;;4950950;28;107867;-76
2023/12/14 06:56:19;;;;;;;9.23;4.90;;;6.50;99.90;6.30;99885.00;;;;4945226;28;109274;-74
2023/12/14 06:58:44;;;;;;;7.00;3.80;;;6.50;99.90;6.30;99886.00;;;;4950426;28;111807;-75
2023/12/14 07:01:15;;;;;;;5.53;3.03;;;6.90;99.90;6.30;99896.00;;;;4951182;28;111262;-76
2023/12/14 07:03:44;;;;;;;5.07;2.60;;;6.40;99.90;6.20;99902.00;;;;4952774;28;98885;-74
2023/12/14 07:06:15;;;;;;;6.80;2.93;;;6.40;99.90;6.20;99906.00;;;;4944739;28;94273;-74
2023/12/14 07:08:42;;;;;;;3.33;2.60;;;6.90;99.90;6.20;99914.00;;;;4948427;28;100010;-74
2023/12/14 07:11:08;;;;;;;6.77;3.53;;;6.40;99.90;6.20;99922.00;;;;4947440;28;92128;-74
2023/12/14 07:13:36;;;;;;;3.37;2.97;;;6.40;99.90;6.20;99921.00;;;;4952139;28;93124;-74
2023/12/14 07:16:09;;;;;;;4.00;2.97;;;6.30;99.90;6.10;99936.00;;;;4952221;28;96676;-76
2023/12/14 07:18:40;;;;;;;4.43;2.90;;;6.40;99.90;6.10;99921.00;;;;4929766;28;109759;-76
2023/12/14 07:21:07;;;;;;;3.33;2.27;;;6.30;99.90;6.10;99920.00;;;;4951011;28;92994;-73
2023/12/14 07:23:34;;;;;;;3.13;2.27;;;6.30;99.90;6.10;99936.00;;;;4953423;28;93120;-76
2023/12/14 07:26:06;;;;;;;3.80;3.00;;;6.30;99.90;6.00;99951.00;;;;4955878;28;93961;-76
2023/12/14 07:28:32;;;;;;;3.93;3.03;;;6.30;99.90;6.00;99950.00;;;;4929302;28;122626;-76
2023/12/14 07:30:57;;;;;;;4.43;2.60;;;6.20;99.90;6.00;99957.00;;;;4951759;28;92672;-78
2023/12/14 07:33:23;;;;;;;3.37;2.80;;;6.20;99.90;6.00;99964.00;;;;4968990;28;109559;-78
2023/12/14 07:35:49;;;;;;;4.77;2.73;;;6.20;99.90;6.00;99968.00;;;;4954644;28;100344;-75
2023/12/14 07:38:14;;;;;;;7.00;2.27;;;6.20;99.90;5.90;99976.00;;;;4939856;28;118677;-77
2023/12/14 07:40:41;;;;;;;2.73;2.43;;;6.50;99.90;5.90;99975.00;;;;4953128;28;110507;-74
2023/12/14 07:43:07;;;;;;;5.67;2.60;;;6.80;99.90;5.90;99972.00;;;;4939306;28;94040;-76
2023/12/14 07:45:32;;;;;;;3.33;2.70;;;6.10;99.90;5.90;99975.00;;;;4949952;28;93880;-76
2023/12/14 07:47:58;;;;;;;4.10;3.03;;;6.00;99.90;5.80;99975.00;;;;4949783;28;121835;-75
2023/12/14 07:50:25;;;;;;;4.30;2.50;;;6.50;99.90;5.80;99987.00;;;;4952230;28;92851;-76
2023/12/14 07:52:51;;;;;;;3.43;2.73;;;6.00;99.90;5.80;99998.00;;;;4951308;28;93629;-76
2023/12/14 07:55:17;;;;;;;3.37;2.53;;;6.50;99.90;5.80;99999.00;;;;4951535;28;93226;-78
2023/12/14 07:57:43;;;;;;;4.37;2.63;;;6.70;99.90;5.80;99999.00;;;;4949351;28;95313;-79
2023/12/14 08:00:10;;;;;;;3.30;2.80;;;6.00;99.90;5.80;100009.00;;;;4949880;28;92302;-78
2023/12/14 08:02:36;;;;;;;5.83;2.73;;;6.00;99.90;5.80;100008.00;;;;4952370;28;92847;-77
2023/12/14 08:05:01;;;;;;;3.53;2.70;;;6.00;99.90;5.80;100014.00;;;;4950407;28;92998;-78
2023/12/14 08:07:29;;;;;;;3.63;2.73;;;6.00;99.90;5.80;100021.00;;;;4966461;28;109112;-77
2023/12/14 08:09:58;;;;;;;3.23;2.70;;;6.00;99.90;5.80;100024.00;;;;4949840;28;92836;-77
2023/12/14 08:12:24;;;;;;;4.57;2.70;;;6.00;99.90;5.80;100013.00;;;;4945250;28;92968;-77
2023/12/14 08:14:50;;;;;;;4.90;2.73;;;5.90;99.90;5.70;100014.00;;;;4951911;28;95288;-77
2023/12/14 08:17:16;;;;;;;6.97;2.43;;;5.90;99.90;5.70;100025.00;;;;4925451;28;122486;-77
2023/12/14 08:19:42;;;;;;;4.27;2.37;;;6.20;99.90;5.70;100026.00;;;;4947003;28;96797;-77
2023/12/14 08:22:11;;;;;;;3.70;1.80;;;6.10;99.90;5.70;100021.00;;;;4948460;28;92775;-76
2023/12/14 08:24:37;;;;;;;2.87;2.30;;;6.50;99.90;5.70;100029.00;;;;4950954;28;92658;-75
2023/12/14 08:27:03;;;;;;;2.63;2.10;;;5.90;99.90;5.70;100038.00;;;;4943765;28;106426;-73
2023/12/14 08:29:29;;;;;;;4.50;2.30;;;5.90;99.90;5.70;100051.00;;;;4948237;28;100284;-73
2023/12/14 08:31:57;;;;;;;5.93;1.77;;;5.80;99.90;5.60;100048.00;;;;4949934;28;93795;-73
2023/12/14 08:34:24;;;;;;;2.53;2.20;;;6.30;99.90;5.60;100059.00;;;;4950142;28;92908;-74
2023/12/14 08:36:49;;;;;;;4.23;2.33;;;5.90;99.90;5.60;100062.00;;;;4950603;28;114028;-72
2023/12/14 08:39:15;;;;;;;3.80;2.43;;;5.70;99.90;5.60;100069.00;;;;4952003;28;109469;-73
2023/12/14 08:41:41;;;;;;;2.07;1.70;;;5.70;99.90;5.50;100075.00;;;;4933794;28;107943;-73
2023/12/14 08:44:07;;;;;;;6.93;2.17;;;5.90;99.90;5.50;100079.00;;;;4949560;28;94157;-75
2023/12/14 08:46:46;;;;;;;5.07;2.53;;;6.10;99.90;5.50;100086.00;;;;4946057;28;106357;-75
2023/12/14 08:49:13;;;;;;;4.17;2.37;;;6.10;99.90;5.50;100091.00;;;;4953906;28;93528;-74
2023/12/14 08:51:39;;;;;;;4.27;2.40;;;5.70;99.90;5.50;100096.00;;;;4950738;28;99056;-74
2023/12/14 08:54:06;;;;;;;2.90;1.97;;;5.70;99.90;5.50;100113.00;;;;4955754;28;98827;-73
2023/12/14 08:56:32;;;;;;;3.10;2.50;;;5.60;99.90;5.40;100102.00;;;;4951944;28;94911;-74
2023/12/14 08:58:59;;;;;;;2.70;2.07;;;5.70;99.90;5.40;100125.00;;;;4947009;28;93085;-73
2023/12/14 09:01:25;;;;;;;2.97;2.43;;;5.80;99.90;5.40;100118.00;;;;4934050;28;93078;-76
2023/12/14 09:03:51;;;;;;;3.03;2.00;;;5.60;99.90;5.40;100116.00;;;;4950898;28;123229;-77
2023/12/14 09:06:18;;;;;;;3.53;1.63;;;5.90;99.90;5.40;100122.00;;;;4953285;28;96515;-74
2023/12/14 09:08:46;;;;;;;4.43;2.17;;;6.30;99.90;5.40;100124.00;;;;4951401;28;93498;-77
2023/12/14 09:11:12;;;;;;;3.50;2.07;;;6.20;99.90;5.40;100129.00;;;;4951257;28;106815;-75
2023/12/14 09:13:38;;;;;;;2.73;1.60;;;6.40;99.90;5.40;100142.00;;;;4951712;28;92475;-73
2023/12/14 09:16:04;;;;;;;6.80;1.90;;;5.60;99.90;5.40;100146.00;;;;4945234;28;121127;-75
2023/12/14 09:18:30;;;;;;;2.40;1.93;;;5.60;99.90;5.40;100147.00;;;;4944572;28;100742;-73
2023/12/14 09:20:56;;;;;;;3.90;1.93;;;5.60;99.90;5.40;100148.00;;;;4950068;28;109035;-74
2023/12/14 09:23:22;;;;;;;2.47;1.67;;;5.60;99.90;5.40;100153.00;;;;4948462;28;92914;-73
2023/12/14 09:25:47;;;;;;;3.17;1.53;;;5.60;99.90;5.40;100150.00;;;;4950552;28;103492;-73
2023/12/14 09:28:13;;;;;;;1.70;1.30;;;5.60;99.90;5.40;100155.00;;;;4948113;28;110954;-73
2023/12/14 09:30:39;;;;;;;1.97;1.73;;;6.20;99.90;5.40;100163.00;;;;4925134;28;108731;-71
2023/12/14 09:33:05;;;;;;;2.40;1.23;;;5.60;99.90;5.40;100162.00;;;;4946309;28;123430;-72
2023/12/14 09:35:31;;;;;;;1.13;1.13;;;5.60;99.90;5.40;100172.00;;;;4955270;28;93466;-72
2023/12/14 09:37:57;;;;;;;1.73;1.30;;;5.60;99.90;5.50;100170.00;;;;4950283;28;110179;-72
2023/12/14 09:40:23;;;;;;;1.87;1.23;;;5.60;99.90;5.50;100177.00;;;;4952151;28;108427;-72
2023/12/14 09:42:48;;;;;;;0.97;0.87;;;5.60;99.90;5.40;100176.00;;;;4952635;28;93516;-72
2023/12/14 09:45:17;;;;;;;1.70;1.03;;;5.60;99.90;5.50;100174.00;;;;4949557;28;93908;-72
2023/12/14 09:47:46;;;;;;;4.47;1.30;;;5.60;99.90;5.50;100182.00;;;;4947551;28;92929;-73
2023/12/14 09:50:14;;;;;;;2.57;1.30;;;5.70;99.90;5.40;100191.00;;;;4948240;28;108978;-71
2023/12/14 09:52:44;;;;;;;1.40;0.93;;;5.60;99.90;5.40;100187.00;;;;4947170;28;93185;-72
2023/12/14 09:55:11;;;;;;;2.00;0.60;;;5.90;99.90;5.40;100190.00;;;;4946889;28;93280;-72
2023/12/14 09:57:37;;;;;;;1.90;1.27;;;5.60;99.90;5.40;100193.00;;;;4953626;28;101360;-70
2023/12/14 10:00:05;;;;;;;1.40;1.20;;;6.30;99.90;5.50;100202.00;;;;4947715;28;108370;-70
2023/12/14 10:02:31;;;;;;;1.97;1.40;;;5.70;99.90;5.40;100201.00;;;;4952928;28;93700;-70
2023/12/14 10:04:57;;;;;;;3.17;1.33;;;5.60;99.90;5.50;100208.00;;;;4967706;28;122928;-72
2023/12/14 10:07:22;;;;;;;1.03;0.80;;;6.30;99.90;5.40;100205.00;;;;4953119;28;110768;-72
2023/12/14 10:09:48;;;;;;;2.10;1.40;;;5.60;99.90;5.40;100210.00;;;;4956813;28;94039;-71
2023/12/14 10:12:14;;;;;;;2.50;1.17;;;5.50;99.90;5.40;100197.00;;;;4948700;28;93798;-72
2023/12/14 10:14:40;;;;;;;1.30;1.10;;;5.50;99.90;5.40;100213.00;;;;4950542;28;97125;-72
2023/12/14 10:17:20;;;;;;;4.50;1.67;;;5.60;99.90;5.40;100217.00;;;;4935541;28;110233;-71
2023/12/14 10:19:46;;;;;;;1.30;1.20;;;5.60;99.90;5.50;100223.00;;;;4949157;28;92953;-71
2023/12/14 10:22:17;;;;;;;1.10;1.00;;;5.60;99.90;5.50;100223.00;;;;4951582;28;93870;-72
2023/12/14 10:24:49;;;;;;;1.87;0.90;;;6.20;99.90;5.50;100223.00;;;;4940160;28;95177;-73
2023/12/14 10:27:16;;;;;;;1.87;1.40;;;6.30;99.90;5.60;100222.00;;;;4950228;28;92099;-71
2023/12/14 10:29:44;;;;;;;3.37;1.93;;;5.80;99.90;5.60;100230.00;;;;4946157;28;99967;-71
2023/12/14 10:32:11;;;;;;;1.30;1.20;;;5.70;99.90;5.60;100228.00;;;;4944449;28;92935;-71
2023/12/14 10:34:37;;;;;;;1.67;1.53;;;6.20;99.90;5.60;100231.00;;;;4945917;28;94030;-71
2023/12/14 10:37:06;;;;;;;2.83;1.77;;;5.80;99.90;5.50;100232.00;;;;4949489;28;93195;-71
2023/12/14 10:39:35;;;;;;;2.13;1.67;;;5.70;99.90;5.50;100242.00;;;;4950350;28;93037;-72
2023/12/14 10:42:05;;;;;;;3.30;1.30;;;6.30;99.90;5.50;100246.00;;;;4947347;28;94139;-71
2023/12/14 10:44:37;;;;;;;3.17;1.57;;;5.60;99.90;5.50;100249.00;;;;4946287;28;94261;-72
2023/12/14 10:47:06;;;;;;;2.87;1.90;;;5.80;99.90;5.50;100245.00;;;;4951311;28;92989;-72
2023/12/14 10:49:32;;;;;;;3.27;1.33;;;5.70;99.90;5.50;100251.00;;;;4946681;28;92825;-73
2023/12/14 10:51:59;;;;;;;3.27;1.47;;;5.70;99.90;5.50;100256.00;;;;4955638;28;92948;-71
2023/12/14 10:54:26;;;;;;;2.40;1.60;;;6.10;99.90;5.50;100268.00;;;;4950836;28;120773;-71
2023/12/14 10:56:57;;;;;;;7.93;2.20;;;6.20;99.90;5.40;100276.00;;;;4950610;28;109653;-71